sensor_id;sensor_type;location;lat;lon;timestamp;P1;durP1;ratioP1;P2;durP2;ratioP2
17059;SDS011;8646;49.716;9.266;2024-03-06T00:00:05;23.23;;;11.90;;
17059;SDS011;8646;49.716;9.266;2024-03-06T00:03:09;17.40;;;10.13;;
17059;SDS011;8646;49.716;9.266;2024-03-06T00:06:12;24.57;;;11.50;;
17059;SDS011;8646;49.716;9.266;2024-03-06T00:09:16;19.97;;;10.70;;
17059;SDS011;8646;49.716;9.266;2024-03-06T00:12:19;18.67;;;10.10;;
17059;SDS011;8646;49.716;9.266;2024-03-06T00:15:22;30.77;;;15.27;;
17059;SDS011;8646;49.716;9.266;2024-03-06T00:18:25;23.80;;;12.30;;
17059;SDS011;8646;49.716;9.266;2024-03-06T00:21:28;18.20;;;10.23;;
17059;SDS011;8646;49.716;9.266;2024-03-06T00:24:32;19.57;;;10.20;;
17059;SDS011;8646;49.716;9.266;2024-03-06T00:27:35;17.53;;;10.07;;
17059;SDS011;8646;49.716;9.266;2024-03-06T00:30:37;18.83;;;10.03;;
17059;SDS011;8646;49.716;9.266;2024-03-06T00:33:40;18.17;;;10.10;;
17059;SDS011;8646;49.716;9.266;2024-03-06T00:36:43;19.23;;;11.07;;
17059;SDS011;8646;49.716;9.266;2024-03-06T00:39:47;19.17;;;11.53;;
17059;SDS011;8646;49.716;9.266;2024-03-06T00:42:50;18.50;;;11.23;;
17059;SDS011;8646;49.716;9.266;2024-03-06T00:45:53;20.93;;;11.70;;
17059;SDS011;8646;49.716;9.266;2024-03-06T00:48:55;20.20;;;11.20;;
17059;SDS011;8646;49.716;9.266;2024-03-06T00:51:58;17.93;;;11.37;;
17059;SDS011;8646;49.716;9.266;2024-03-06T00:55:03;21.67;;;11.13;;
17059;SDS011;8646;49.716;9.266;2024-03-06T00:58:06;20.33;;;11.47;;
17059;SDS011;8646;49.716;9.266;2024-03-06T01:01:09;18.47;;;11.00;;
17059;SDS011;8646;49.716;9.266;2024-03-06T01:04:12;15.60;;;9.70;;
17059;SDS011;8646;49.716;9.266;2024-03-06T01:07:14;16.13;;;9.53;;
17059;SDS011;8646;49.716;9.266;2024-03-06T01:10:18;18.40;;;10.07;;
17059;SDS011;8646;49.716;9.266;2024-03-06T01:13:21;15.43;;;9.50;;
17059;SDS011;8646;49.716;9.266;2024-03-06T01:16:24;16.90;;;9.90;;
17059;SDS011;8646;49.716;9.266;2024-03-06T01:19:27;17.57;;;9.73;;
17059;SDS011;8646;49.716;9.266;2024-03-06T01:22:29;13.37;;;8.27;;
17059;SDS011;8646;49.716;9.266;2024-03-06T01:25:33;14.70;;;8.37;;
17059;SDS011;8646;49.716;9.266;2024-03-06T01:28:36;18.40;;;9.33;;
17059;SDS011;8646;49.716;9.266;2024-03-06T01:31:39;15.60;;;9.10;;
17059;SDS011;8646;49.716;9.266;2024-03-06T01:34:42;16.27;;;8.17;;
17059;SDS011;8646;49.716;9.266;2024-03-06T01:37:44;13.30;;;7.90;;
17059;SDS011;8646;49.716;9.266;2024-03-06T01:40:49;15.77;;;8.27;;
17059;SDS011;8646;49.716;9.266;2024-03-06T01:43:52;16.77;;;7.57;;
17059;SDS011;8646;49.716;9.266;2024-03-06T01:46:55;16.30;;;7.80;;
17059;SDS011;8646;49.716;9.266;2024-03-06T01:49:58;16.03;;;8.20;;
17059;SDS011;8646;49.716;9.266;2024-03-06T01:53:01;16.13;;;7.90;;
17059;SDS011;8646;49.716;9.266;2024-03-06T01:56:06;15.33;;;8.47;;
17059;SDS011;8646;49.716;9.266;2024-03-06T01:59:13;17.43;;;8.13;;
17059;SDS011;8646;49.716;9.266;2024-03-06T02:02:31;15.77;;;8.57;;
17059;SDS011;8646;49.716;9.266;2024-03-06T02:05:34;15.53;;;8.80;;
17059;SDS011;8646;49.716;9.266;2024-03-06T02:08:37;16.07;;;8.67;;
17059;SDS011;8646;49.716;9.266;2024-03-06T02:11:41;13.80;;;8.30;;
17059;SDS011;8646;49.716;9.266;2024-03-06T02:14:44;22.23;;;9.30;;
17059;SDS011;8646;49.716;9.266;2024-03-06T02:17:47;17.17;;;9.00;;
17059;SDS011;8646;49.716;9.266;2024-03-06T02:20:51;20.37;;;9.40;;
17059;SDS011;8646;49.716;9.266;2024-03-06T02:23:54;16.63;;;9.30;;
17059;SDS011;8646;49.716;9.266;2024-03-06T02:26:56;17.80;;;9.10;;
17059;SDS011;8646;49.716;9.266;2024-03-06T02:30:23;17.90;;;10.10;;
17059;SDS011;8646;49.716;9.266;2024-03-06T02:33:26;20.97;;;10.57;;
17059;SDS011;8646;49.716;9.266;2024-03-06T02:36:30;21.20;;;10.57;;
17059;SDS011;8646;49.716;9.266;2024-03-06T02:39:33;17.03;;;9.90;;
17059;SDS011;8646;49.716;9.266;2024-03-06T02:42:36;15.30;;;8.93;;
17059;SDS011;8646;49.716;9.266;2024-03-06T02:45:40;21.50;;;9.80;;
17059;SDS011;8646;49.716;9.266;2024-03-06T02:48:43;20.37;;;9.80;;
17059;SDS011;8646;49.716;9.266;2024-03-06T02:51:47;19.23;;;10.10;;
17059;SDS011;8646;49.716;9.266;2024-03-06T02:54:50;18.93;;;10.73;;
17059;SDS011;8646;49.716;9.266;2024-03-06T02:57:53;19.57;;;9.63;;
17059;SDS011;8646;49.716;9.266;2024-03-06T03:00:55;18.77;;;9.40;;
17059;SDS011;8646;49.716;9.266;2024-03-06T03:03:58;17.23;;;9.20;;
17059;SDS011;8646;49.716;9.266;2024-03-06T03:07:02;15.83;;;8.20;;
17059;SDS011;8646;49.716;9.266;2024-03-06T03:10:07;19.27;;;8.97;;
17059;SDS011;8646;49.716;9.266;2024-03-06T03:13:11;18.30;;;8.50;;
17059;SDS011;8646;49.716;9.266;2024-03-06T03:16:17;17.03;;;8.53;;
17059;SDS011;8646;49.716;9.266;2024-03-06T03:19:22;25.73;;;10.17;;
17059;SDS011;8646;49.716;9.266;2024-03-06T03:22:26;20.73;;;10.50;;
17059;SDS011;8646;49.716;9.266;2024-03-06T03:25:29;24.47;;;10.63;;
17059;SDS011;8646;49.716;9.266;2024-03-06T03:28:32;17.57;;;8.43;;
17059;SDS011;8646;49.716;9.266;2024-03-06T03:31:34;23.47;;;8.83;;
17059;SDS011;8646;49.716;9.266;2024-03-06T03:34:39;19.47;;;9.60;;
17059;SDS011;8646;49.716;9.266;2024-03-06T03:37:43;20.80;;;10.30;;
17059;SDS011;8646;49.716;9.266;2024-03-06T03:40:46;28.67;;;13.07;;
17059;SDS011;8646;49.716;9.266;2024-03-06T03:43:49;27.40;;;12.87;;
17059;SDS011;8646;49.716;9.266;2024-03-06T03:46:52;33.33;;;13.37;;
17059;SDS011;8646;49.716;9.266;2024-03-06T03:49:55;36.37;;;13.50;;
17059;SDS011;8646;49.716;9.266;2024-03-06T03:53:11;34.73;;;12.93;;
17059;SDS011;8646;49.716;9.266;2024-03-06T03:56:14;35.93;;;14.47;;
17059;SDS011;8646;49.716;9.266;2024-03-06T03:59:17;31.10;;;13.00;;
17059;SDS011;8646;49.716;9.266;2024-03-06T04:02:20;30.27;;;12.83;;
17059;SDS011;8646;49.716;9.266;2024-03-06T04:05:23;33.87;;;12.57;;
17059;SDS011;8646;49.716;9.266;2024-03-06T04:08:27;32.03;;;12.17;;
17059;SDS011;8646;49.716;9.266;2024-03-06T04:11:30;34.23;;;12.47;;
17059;SDS011;8646;49.716;9.266;2024-03-06T04:14:34;32.90;;;11.73;;
17059;SDS011;8646;49.716;9.266;2024-03-06T04:17:37;27.53;;;11.87;;
17059;SDS011;8646;49.716;9.266;2024-03-06T04:20:42;25.93;;;11.27;;
17059;SDS011;8646;49.716;9.266;2024-03-06T04:23:47;30.97;;;12.20;;
17059;SDS011;8646;49.716;9.266;2024-03-06T04:26:49;33.33;;;12.33;;
17059;SDS011;8646;49.716;9.266;2024-03-06T04:29:52;30.67;;;12.67;;
17059;SDS011;8646;49.716;9.266;2024-03-06T04:32:55;29.20;;;12.47;;
17059;SDS011;8646;49.716;9.266;2024-03-06T04:35:57;30.70;;;12.63;;
17059;SDS011;8646;49.716;9.266;2024-03-06T04:39:05;28.77;;;12.47;;
17059;SDS011;8646;49.716;9.266;2024-03-06T04:42:09;22.57;;;11.57;;
17059;SDS011;8646;49.716;9.266;2024-03-06T04:45:11;29.17;;;11.17;;
17059;SDS011;8646;49.716;9.266;2024-03-06T04:48:16;23.20;;;11.70;;
17059;SDS011;8646;49.716;9.266;2024-03-06T04:51:19;26.57;;;13.13;;
17059;SDS011;8646;49.716;9.266;2024-03-06T04:54:23;26.93;;;11.20;;
17059;SDS011;8646;49.716;9.266;2024-03-06T04:57:26;22.37;;;10.90;;
17059;SDS011;8646;49.716;9.266;2024-03-06T05:00:29;29.10;;;10.80;;
17059;SDS011;8646;49.716;9.266;2024-03-06T05:03:32;26.07;;;11.77;;
17059;SDS011;8646;49.716;9.266;2024-03-06T05:06:53;24.13;;;10.33;;
17059;SDS011;8646;49.716;9.266;2024-03-06T05:10:15;21.80;;;9.97;;
17059;SDS011;8646;49.716;9.266;2024-03-06T05:13:35;23.20;;;9.70;;
17059;SDS011;8646;49.716;9.266;2024-03-06T05:16:55;24.33;;;9.77;;
17059;SDS011;8646;49.716;9.266;2024-03-06T05:20:16;21.60;;;10.07;;
17059;SDS011;8646;49.716;9.266;2024-03-06T05:23:36;26.23;;;10.27;;
17059;SDS011;8646;49.716;9.266;2024-03-06T05:26:57;23.07;;;9.97;;
17059;SDS011;8646;49.716;9.266;2024-03-06T05:30:18;22.23;;;10.37;;
17059;SDS011;8646;49.716;9.266;2024-03-06T05:33:38;28.93;;;11.43;;
17059;SDS011;8646;49.716;9.266;2024-03-06T05:36:59;23.03;;;10.63;;
17059;SDS011;8646;49.716;9.266;2024-03-06T05:40:20;25.60;;;10.93;;
17059;SDS011;8646;49.716;9.266;2024-03-06T05:43:41;24.40;;;10.90;;
17059;SDS011;8646;49.716;9.266;2024-03-06T05:47:02;25.17;;;11.00;;
17059;SDS011;8646;49.716;9.266;2024-03-06T05:50:22;25.80;;;11.50;;
17059;SDS011;8646;49.716;9.266;2024-03-06T05:53:43;23.07;;;11.20;;
17059;SDS011;8646;49.716;9.266;2024-03-06T05:57:03;28.70;;;11.57;;
17059;SDS011;8646;49.716;9.266;2024-03-06T06:00:25;25.47;;;10.87;;
17059;SDS011;8646;49.716;9.266;2024-03-06T06:03:27;30.60;;;11.43;;
17059;SDS011;8646;49.716;9.266;2024-03-06T06:06:30;31.00;;;12.50;;
17059;SDS011;8646;49.716;9.266;2024-03-06T06:09:33;32.00;;;12.03;;
17059;SDS011;8646;49.716;9.266;2024-03-06T06:12:36;34.63;;;12.10;;
17059;SDS011;8646;49.716;9.266;2024-03-06T06:15:40;38.17;;;12.57;;
17059;SDS011;8646;49.716;9.266;2024-03-06T06:18:42;37.80;;;12.67;;
17059;SDS011;8646;49.716;9.266;2024-03-06T06:21:45;45.47;;;13.47;;
17059;SDS011;8646;49.716;9.266;2024-03-06T06:24:49;38.80;;;13.30;;
17059;SDS011;8646;49.716;9.266;2024-03-06T06:27:52;48.20;;;14.63;;
17059;SDS011;8646;49.716;9.266;2024-03-06T06:30:56;38.37;;;14.43;;
17059;SDS011;8646;49.716;9.266;2024-03-06T06:34:00;37.10;;;14.47;;
17059;SDS011;8646;49.716;9.266;2024-03-06T06:37:02;33.97;;;14.30;;
17059;SDS011;8646;49.716;9.266;2024-03-06T06:40:07;37.33;;;14.47;;
17059;SDS011;8646;49.716;9.266;2024-03-06T06:43:11;38.13;;;15.17;;
17059;SDS011;8646;49.716;9.266;2024-03-06T06:46:18;35.87;;;14.27;;
17059;SDS011;8646;49.716;9.266;2024-03-06T06:49:22;31.70;;;13.07;;
17059;SDS011;8646;49.716;9.266;2024-03-06T06:52:25;39.57;;;15.10;;
17059;SDS011;8646;49.716;9.266;2024-03-06T06:55:29;36.23;;;13.93;;
17059;SDS011;8646;49.716;9.266;2024-03-06T06:58:31;32.43;;;13.87;;
17059;SDS011;8646;49.716;9.266;2024-03-06T07:01:35;32.87;;;13.67;;
17059;SDS011;8646;49.716;9.266;2024-03-06T07:04:38;33.13;;;14.63;;
17059;SDS011;8646;49.716;9.266;2024-03-06T07:07:41;35.37;;;15.80;;
17059;SDS011;8646;49.716;9.266;2024-03-06T07:10:43;34.00;;;14.00;;
17059;SDS011;8646;49.716;9.266;2024-03-06T07:13:46;31.73;;;13.90;;
17059;SDS011;8646;49.716;9.266;2024-03-06T07:16:50;26.03;;;12.90;;
17059;SDS011;8646;49.716;9.266;2024-03-06T07:19:53;21.93;;;11.10;;
17059;SDS011;8646;49.716;9.266;2024-03-06T07:22:55;24.20;;;11.90;;
17059;SDS011;8646;49.716;9.266;2024-03-06T07:25:59;23.60;;;11.60;;
17059;SDS011;8646;49.716;9.266;2024-03-06T07:29:01;22.07;;;11.00;;
17059;SDS011;8646;49.716;9.266;2024-03-06T07:32:06;25.57;;;11.33;;
17059;SDS011;8646;49.716;9.266;2024-03-06T07:35:09;24.70;;;11.07;;
17059;SDS011;8646;49.716;9.266;2024-03-06T07:38:12;25.50;;;11.27;;
17059;SDS011;8646;49.716;9.266;2024-03-06T07:41:15;23.40;;;12.23;;
17059;SDS011;8646;49.716;9.266;2024-03-06T07:44:18;24.60;;;11.80;;
17059;SDS011;8646;49.716;9.266;2024-03-06T07:47:23;23.80;;;12.20;;
17059;SDS011;8646;49.716;9.266;2024-03-06T07:50:25;25.83;;;12.47;;
17059;SDS011;8646;49.716;9.266;2024-03-06T07:53:28;24.23;;;12.00;;
17059;SDS011;8646;49.716;9.266;2024-03-06T07:56:31;26.97;;;11.53;;
17059;SDS011;8646;49.716;9.266;2024-03-06T07:59:34;19.37;;;10.67;;
17059;SDS011;8646;49.716;9.266;2024-03-06T08:02:38;20.03;;;9.80;;
17059;SDS011;8646;49.716;9.266;2024-03-06T08:05:44;20.87;;;10.93;;
17059;SDS011;8646;49.716;9.266;2024-03-06T08:08:46;24.27;;;11.90;;
17059;SDS011;8646;49.716;9.266;2024-03-06T08:11:49;26.57;;;11.53;;
17059;SDS011;8646;49.716;9.266;2024-03-06T08:14:53;26.77;;;12.17;;
17059;SDS011;8646;49.716;9.266;2024-03-06T08:17:57;21.97;;;12.30;;
17059;SDS011;8646;49.716;9.266;2024-03-06T08:21:00;23.93;;;12.07;;
17059;SDS011;8646;49.716;9.266;2024-03-06T08:24:04;27.57;;;13.07;;
17059;SDS011;8646;49.716;9.266;2024-03-06T08:27:07;28.63;;;12.50;;
17059;SDS011;8646;49.716;9.266;2024-03-06T08:30:10;24.93;;;13.07;;
17059;SDS011;8646;49.716;9.266;2024-03-06T08:33:15;32.27;;;13.37;;
17059;SDS011;8646;49.716;9.266;2024-03-06T08:36:19;30.50;;;14.03;;
17059;SDS011;8646;49.716;9.266;2024-03-06T08:39:22;32.70;;;15.87;;
17059;SDS011;8646;49.716;9.266;2024-03-06T08:42:25;31.67;;;15.20;;
17059;SDS011;8646;49.716;9.266;2024-03-06T08:45:27;30.20;;;15.07;;
17059;SDS011;8646;49.716;9.266;2024-03-06T08:48:31;30.13;;;14.97;;
17059;SDS011;8646;49.716;9.266;2024-03-06T08:51:34;30.47;;;14.90;;
17059;SDS011;8646;49.716;9.266;2024-03-06T08:54:37;29.10;;;14.77;;
17059;SDS011;8646;49.716;9.266;2024-03-06T08:57:39;36.53;;;16.60;;
17059;SDS011;8646;49.716;9.266;2024-03-06T09:00:42;31.40;;;15.90;;
17059;SDS011;8646;49.716;9.266;2024-03-06T09:03:46;38.03;;;16.20;;
17059;SDS011;8646;49.716;9.266;2024-03-06T09:06:49;32.00;;;15.67;;
17059;SDS011;8646;49.716;9.266;2024-03-06T09:09:53;30.43;;;15.40;;
17059;SDS011;8646;49.716;9.266;2024-03-06T09:12:56;29.40;;;15.47;;
17059;SDS011;8646;49.716;9.266;2024-03-06T09:15:59;31.50;;;14.37;;
17059;SDS011;8646;49.716;9.266;2024-03-06T09:19:03;32.33;;;16.03;;
17059;SDS011;8646;49.716;9.266;2024-03-06T09:22:05;29.67;;;15.30;;
17059;SDS011;8646;49.716;9.266;2024-03-06T09:25:08;30.33;;;14.97;;
17059;SDS011;8646;49.716;9.266;2024-03-06T09:28:11;34.30;;;17.37;;
17059;SDS011;8646;49.716;9.266;2024-03-06T09:31:14;38.43;;;20.37;;
17059;SDS011;8646;49.716;9.266;2024-03-06T09:34:18;33.60;;;16.93;;
17059;SDS011;8646;49.716;9.266;2024-03-06T09:37:22;37.07;;;16.90;;
17059;SDS011;8646;49.716;9.266;2024-03-06T09:40:25;33.40;;;17.97;;
17059;SDS011;8646;49.716;9.266;2024-03-06T09:43:28;31.23;;;14.83;;
17059;SDS011;8646;49.716;9.266;2024-03-06T09:46:32;32.23;;;16.13;;
17059;SDS011;8646;49.716;9.266;2024-03-06T09:49:37;32.57;;;16.17;;
17059;SDS011;8646;49.716;9.266;2024-03-06T09:52:40;36.60;;;19.67;;
17059;SDS011;8646;49.716;9.266;2024-03-06T09:55:46;33.30;;;16.60;;
17059;SDS011;8646;49.716;9.266;2024-03-06T09:58:51;40.13;;;20.20;;
17059;SDS011;8646;49.716;9.266;2024-03-06T10:01:55;34.73;;;16.97;;
17059;SDS011;8646;49.716;9.266;2024-03-06T10:05:00;34.30;;;16.60;;
17059;SDS011;8646;49.716;9.266;2024-03-06T10:08:03;35.30;;;17.40;;
17059;SDS011;8646;49.716;9.266;2024-03-06T10:11:07;37.37;;;18.77;;
17059;SDS011;8646;49.716;9.266;2024-03-06T10:14:11;40.30;;;19.77;;
17059;SDS011;8646;49.716;9.266;2024-03-06T10:17:14;32.63;;;15.67;;
17059;SDS011;8646;49.716;9.266;2024-03-06T10:20:26;32.93;;;16.23;;
17059;SDS011;8646;49.716;9.266;2024-03-06T10:23:29;34.17;;;16.27;;
17059;SDS011;8646;49.716;9.266;2024-03-06T10:26:32;33.70;;;16.93;;
17059;SDS011;8646;49.716;9.266;2024-03-06T10:29:35;34.50;;;17.53;;
17059;SDS011;8646;49.716;9.266;2024-03-06T10:32:38;36.07;;;16.83;;
17059;SDS011;8646;49.716;9.266;2024-03-06T10:35:43;38.77;;;18.03;;
17059;SDS011;8646;49.716;9.266;2024-03-06T10:38:46;32.77;;;16.07;;
17059;SDS011;8646;49.716;9.266;2024-03-06T10:41:54;34.07;;;16.73;;
17059;SDS011;8646;49.716;9.266;2024-03-06T10:44:58;28.33;;;14.87;;
17059;SDS011;8646;49.716;9.266;2024-03-06T10:48:03;34.13;;;17.63;;
17059;SDS011;8646;49.716;9.266;2024-03-06T10:51:08;30.87;;;16.43;;
17059;SDS011;8646;49.716;9.266;2024-03-06T10:54:12;35.53;;;17.33;;
17059;SDS011;8646;49.716;9.266;2024-03-06T10:57:16;32.80;;;16.97;;
17059;SDS011;8646;49.716;9.266;2024-03-06T11:00:20;34.37;;;16.67;;
17059;SDS011;8646;49.716;9.266;2024-03-06T11:03:23;30.00;;;15.37;;
17059;SDS011;8646;49.716;9.266;2024-03-06T11:06:29;29.97;;;16.07;;
17059;SDS011;8646;49.716;9.266;2024-03-06T11:09:34;29.93;;;15.73;;
17059;SDS011;8646;49.716;9.266;2024-03-06T11:12:39;31.80;;;16.50;;
17059;SDS011;8646;49.716;9.266;2024-03-06T11:15:42;31.23;;;16.53;;
17059;SDS011;8646;49.716;9.266;2024-03-06T11:18:45;33.13;;;17.07;;
17059;SDS011;8646;49.716;9.266;2024-03-06T11:21:49;31.73;;;16.03;;
17059;SDS011;8646;49.716;9.266;2024-03-06T11:24:52;29.93;;;15.07;;
17059;SDS011;8646;49.716;9.266;2024-03-06T11:28:04;30.07;;;15.10;;
17059;SDS011;8646;49.716;9.266;2024-03-06T11:31:07;29.53;;;15.90;;
17059;SDS011;8646;49.716;9.266;2024-03-06T11:34:14;34.20;;;16.50;;
17059;SDS011;8646;49.716;9.266;2024-03-06T11:37:20;28.17;;;15.07;;
17059;SDS011;8646;49.716;9.266;2024-03-06T11:40:24;29.53;;;15.20;;
17059;SDS011;8646;49.716;9.266;2024-03-06T11:43:28;30.10;;;15.17;;
17059;SDS011;8646;49.716;9.266;2024-03-06T11:46:41;29.33;;;15.67;;
17059;SDS011;8646;49.716;9.266;2024-03-06T11:49:44;29.90;;;15.93;;
17059;SDS011;8646;49.716;9.266;2024-03-06T11:52:48;33.70;;;15.93;;
17059;SDS011;8646;49.716;9.266;2024-03-06T11:55:51;26.33;;;14.73;;
17059;SDS011;8646;49.716;9.266;2024-03-06T11:58:54;31.00;;;16.23;;
17059;SDS011;8646;49.716;9.266;2024-03-06T12:01:57;29.77;;;15.77;;
17059;SDS011;8646;49.716;9.266;2024-03-06T12:05:04;29.83;;;15.87;;
17059;SDS011;8646;49.716;9.266;2024-03-06T12:08:09;30.17;;;16.50;;
17059;SDS011;8646;49.716;9.266;2024-03-06T12:11:12;29.53;;;16.27;;
17059;SDS011;8646;49.716;9.266;2024-03-06T12:14:16;31.77;;;16.00;;
17059;SDS011;8646;49.716;9.266;2024-03-06T12:17:20;31.53;;;15.73;;
17059;SDS011;8646;49.716;9.266;2024-03-06T12:20:23;33.27;;;16.33;;
17059;SDS011;8646;49.716;9.266;2024-03-06T12:23:28;31.23;;;16.50;;
17059;SDS011;8646;49.716;9.266;2024-03-06T12:26:31;30.57;;;15.73;;
17059;SDS011;8646;49.716;9.266;2024-03-06T12:29:34;35.47;;;16.20;;
17059;SDS011;8646;49.716;9.266;2024-03-06T12:32:39;32.80;;;16.33;;
17059;SDS011;8646;49.716;9.266;2024-03-06T12:35:41;31.20;;;16.60;;
17059;SDS011;8646;49.716;9.266;2024-03-06T12:38:53;34.53;;;17.50;;
17059;SDS011;8646;49.716;9.266;2024-03-06T12:41:56;31.67;;;16.97;;
17059;SDS011;8646;49.716;9.266;2024-03-06T12:45:03;31.03;;;16.27;;
17059;SDS011;8646;49.716;9.266;2024-03-06T12:48:08;30.90;;;16.37;;
17059;SDS011;8646;49.716;9.266;2024-03-06T12:51:10;34.83;;;17.97;;
17059;SDS011;8646;49.716;9.266;2024-03-06T12:54:14;33.23;;;16.67;;
17059;SDS011;8646;49.716;9.266;2024-03-06T12:57:17;31.50;;;16.50;;
17059;SDS011;8646;49.716;9.266;2024-03-06T13:00:20;31.40;;;15.47;;
17059;SDS011;8646;49.716;9.266;2024-03-06T13:03:23;29.17;;;15.57;;
17059;SDS011;8646;49.716;9.266;2024-03-06T13:06:27;31.27;;;16.10;;
17059;SDS011;8646;49.716;9.266;2024-03-06T13:09:33;33.80;;;17.07;;
17059;SDS011;8646;49.716;9.266;2024-03-06T13:12:36;30.50;;;15.27;;
17059;SDS011;8646;49.716;9.266;2024-03-06T13:15:39;33.63;;;17.00;;
17059;SDS011;8646;49.716;9.266;2024-03-06T13:18:42;31.03;;;15.43;;
17059;SDS011;8646;49.716;9.266;2024-03-06T13:21:45;31.30;;;15.77;;
17059;SDS011;8646;49.716;9.266;2024-03-06T13:24:49;33.47;;;15.87;;
17059;SDS011;8646;49.716;9.266;2024-03-06T13:27:53;30.77;;;15.93;;
17059;SDS011;8646;49.716;9.266;2024-03-06T13:30:56;32.00;;;15.47;;
17059;SDS011;8646;49.716;9.266;2024-03-06T13:33:59;27.70;;;15.27;;
17059;SDS011;8646;49.716;9.266;2024-03-06T13:37:04;29.90;;;16.23;;
17059;SDS011;8646;49.716;9.266;2024-03-06T13:40:13;28.07;;;14.70;;
17059;SDS011;8646;49.716;9.266;2024-03-06T13:43:16;30.60;;;15.10;;
17059;SDS011;8646;49.716;9.266;2024-03-06T13:46:18;29.07;;;14.40;;
17059;SDS011;8646;49.716;9.266;2024-03-06T13:49:34;29.83;;;15.33;;
17059;SDS011;8646;49.716;9.266;2024-03-06T13:52:37;28.20;;;14.90;;
17059;SDS011;8646;49.716;9.266;2024-03-06T13:55:42;29.70;;;14.33;;
17059;SDS011;8646;49.716;9.266;2024-03-06T13:58:44;29.90;;;14.70;;
17059;SDS011;8646;49.716;9.266;2024-03-06T14:01:47;28.43;;;13.73;;
17059;SDS011;8646;49.716;9.266;2024-03-06T14:04:50;27.40;;;13.90;;
17059;SDS011;8646;49.716;9.266;2024-03-06T14:07:53;27.43;;;13.27;;
17059;SDS011;8646;49.716;9.266;2024-03-06T14:10:58;25.07;;;13.17;;
17059;SDS011;8646;49.716;9.266;2024-03-06T14:14:00;26.33;;;13.97;;
17059;SDS011;8646;49.716;9.266;2024-03-06T14:17:03;28.50;;;13.80;;
17059;SDS011;8646;49.716;9.266;2024-03-06T14:20:06;28.40;;;14.67;;
17059;SDS011;8646;49.716;9.266;2024-03-06T14:23:10;30.23;;;13.63;;
17059;SDS011;8646;49.716;9.266;2024-03-06T14:26:15;24.47;;;12.37;;
17059;SDS011;8646;49.716;9.266;2024-03-06T14:29:18;24.13;;;12.57;;
17059;SDS011;8646;49.716;9.266;2024-03-06T14:32:21;29.50;;;13.20;;
17059;SDS011;8646;49.716;9.266;2024-03-06T14:35:24;27.87;;;13.23;;
17059;SDS011;8646;49.716;9.266;2024-03-06T14:38:27;23.53;;;12.53;;
17059;SDS011;8646;49.716;9.266;2024-03-06T14:41:31;20.73;;;11.17;;
17059;SDS011;8646;49.716;9.266;2024-03-06T14:44:33;22.30;;;11.97;;
17059;SDS011;8646;49.716;9.266;2024-03-06T14:47:36;22.03;;;11.37;;
17059;SDS011;8646;49.716;9.266;2024-03-06T14:50:39;20.47;;;10.10;;
17059;SDS011;8646;49.716;9.266;2024-03-06T14:53:42;22.53;;;11.20;;
17059;SDS011;8646;49.716;9.266;2024-03-06T14:56:46;19.63;;;10.00;;
17059;SDS011;8646;49.716;9.266;2024-03-06T14:59:49;18.50;;;9.93;;
17059;SDS011;8646;49.716;9.266;2024-03-06T15:02:52;20.93;;;10.37;;
17059;SDS011;8646;49.716;9.266;2024-03-06T15:05:59;25.50;;;12.23;;
17059;SDS011;8646;49.716;9.266;2024-03-06T15:09:02;27.23;;;12.40;;
17059;SDS011;8646;49.716;9.266;2024-03-06T15:12:07;19.57;;;10.37;;
17059;SDS011;8646;49.716;9.266;2024-03-06T15:15:10;21.43;;;10.97;;
17059;SDS011;8646;49.716;9.266;2024-03-06T15:18:13;20.87;;;10.60;;
17059;SDS011;8646;49.716;9.266;2024-03-06T15:21:16;19.27;;;9.70;;
17059;SDS011;8646;49.716;9.266;2024-03-06T15:24:19;27.80;;;11.07;;
17059;SDS011;8646;49.716;9.266;2024-03-06T15:27:23;21.13;;;10.83;;
17059;SDS011;8646;49.716;9.266;2024-03-06T15:30:26;21.70;;;10.17;;
17059;SDS011;8646;49.716;9.266;2024-03-06T15:33:29;19.83;;;10.60;;
17059;SDS011;8646;49.716;9.266;2024-03-06T15:36:33;22.77;;;10.90;;
17059;SDS011;8646;49.716;9.266;2024-03-06T15:39:35;22.30;;;10.70;;
17059;SDS011;8646;49.716;9.266;2024-03-06T15:42:39;21.93;;;10.40;;
17059;SDS011;8646;49.716;9.266;2024-03-06T15:45:42;21.17;;;10.77;;
17059;SDS011;8646;49.716;9.266;2024-03-06T15:48:45;24.80;;;11.97;;
17059;SDS011;8646;49.716;9.266;2024-03-06T15:51:48;23.47;;;11.03;;
17059;SDS011;8646;49.716;9.266;2024-03-06T15:54:50;21.77;;;11.13;;
17059;SDS011;8646;49.716;9.266;2024-03-06T15:57:56;25.03;;;11.53;;
17059;SDS011;8646;49.716;9.266;2024-03-06T16:00:59;23.50;;;12.43;;
17059;SDS011;8646;49.716;9.266;2024-03-06T16:04:06;19.77;;;10.90;;
17059;SDS011;8646;49.716;9.266;2024-03-06T16:07:08;24.10;;;11.27;;
17059;SDS011;8646;49.716;9.266;2024-03-06T16:10:13;20.20;;;11.40;;
17059;SDS011;8646;49.716;9.266;2024-03-06T16:13:17;30.37;;;15.70;;
17059;SDS011;8646;49.716;9.266;2024-03-06T16:16:20;18.90;;;9.90;;
17059;SDS011;8646;49.716;9.266;2024-03-06T16:19:22;27.40;;;12.80;;
17059;SDS011;8646;49.716;9.266;2024-03-06T16:22:38;27.97;;;14.73;;
17059;SDS011;8646;49.716;9.266;2024-03-06T16:25:41;21.60;;;10.30;;
17059;SDS011;8646;49.716;9.266;2024-03-06T16:28:45;40.43;;;11.23;;
17059;SDS011;8646;49.716;9.266;2024-03-06T16:31:48;22.77;;;11.37;;
17059;SDS011;8646;49.716;9.266;2024-03-06T16:34:51;31.67;;;13.20;;
17059;SDS011;8646;49.716;9.266;2024-03-06T16:37:54;25.50;;;9.37;;
17059;SDS011;8646;49.716;9.266;2024-03-06T16:40:57;16.33;;;8.37;;
17059;SDS011;8646;49.716;9.266;2024-03-06T16:44:01;16.03;;;7.33;;
17059;SDS011;8646;49.716;9.266;2024-03-06T16:47:05;16.83;;;7.73;;
17059;SDS011;8646;49.716;9.266;2024-03-06T16:50:08;14.93;;;8.20;;
17059;SDS011;8646;49.716;9.266;2024-03-06T16:53:12;42.50;;;9.97;;
17059;SDS011;8646;49.716;9.266;2024-03-06T16:56:15;25.63;;;9.40;;
17059;SDS011;8646;49.716;9.266;2024-03-06T16:59:20;13.73;;;7.00;;
17059;SDS011;8646;49.716;9.266;2024-03-06T17:02:23;27.73;;;16.50;;
17059;SDS011;8646;49.716;9.266;2024-03-06T17:05:26;15.07;;;6.67;;
17059;SDS011;8646;49.716;9.266;2024-03-06T17:08:29;16.80;;;8.60;;
17059;SDS011;8646;49.716;9.266;2024-03-06T17:11:31;40.47;;;21.57;;
17059;SDS011;8646;49.716;9.266;2024-03-06T17:14:36;22.00;;;11.33;;
17059;SDS011;8646;49.716;9.266;2024-03-06T17:17:40;56.83;;;32.70;;
17059;SDS011;8646;49.716;9.266;2024-03-06T17:20:42;13.93;;;8.40;;
17059;SDS011;8646;49.716;9.266;2024-03-06T17:23:45;28.77;;;16.57;;
17059;SDS011;8646;49.716;9.266;2024-03-06T17:26:51;22.17;;;12.27;;
17059;SDS011;8646;49.716;9.266;2024-03-06T17:29:55;19.37;;;10.40;;
17059;SDS011;8646;49.716;9.266;2024-03-06T17:32:59;16.40;;;8.60;;
17059;SDS011;8646;49.716;9.266;2024-03-06T17:36:03;14.60;;;8.03;;
17059;SDS011;8646;49.716;9.266;2024-03-06T17:39:06;15.27;;;6.90;;
17059;SDS011;8646;49.716;9.266;2024-03-06T17:42:10;11.73;;;6.97;;
17059;SDS011;8646;49.716;9.266;2024-03-06T17:45:15;11.63;;;6.87;;
17059;SDS011;8646;49.716;9.266;2024-03-06T17:48:18;14.90;;;6.97;;
17059;SDS011;8646;49.716;9.266;2024-03-06T17:51:27;14.87;;;7.20;;
17059;SDS011;8646;49.716;9.266;2024-03-06T17:54:30;15.33;;;7.50;;
17059;SDS011;8646;49.716;9.266;2024-03-06T17:57:35;14.57;;;7.67;;
17059;SDS011;8646;49.716;9.266;2024-03-06T18:00:39;13.67;;;7.77;;
17059;SDS011;8646;49.716;9.266;2024-03-06T18:03:41;20.27;;;7.97;;
17059;SDS011;8646;49.716;9.266;2024-03-06T18:06:44;17.60;;;8.37;;
17059;SDS011;8646;49.716;9.266;2024-03-06T18:09:47;18.13;;;8.13;;
17059;SDS011;8646;49.716;9.266;2024-03-06T18:12:52;16.60;;;8.20;;
17059;SDS011;8646;49.716;9.266;2024-03-06T18:15:56;15.83;;;7.57;;
17059;SDS011;8646;49.716;9.266;2024-03-06T18:18:58;17.47;;;8.57;;